Pana, IL (62557)

8:31 AM CDT on May 24, 2015 (GMT -0500)
APRSWXNET | | Change Station
CLOSE
Current Station
Personal Weather Station
Location: Pana, IL
Elevation: 700 ft
Nearby Weather Stations

Elev 700 ft 39.39 °N, 89.09 °W | Updated 2 days ago

Cloudy
Cloudy
68 °F
Feels Like 68 °F
N
12
Wind Variable Wind from SSE
Gusts 19 mph

Today
High -- | Low -- °F
--% Chance of Precip.
Yesterday
High -- | Low -- °F
Precip. -- in
5:35 AM 8:10 PM
Waxing Crescent, 39% visible
Pressure 30.12 in
Visibility 10.0 miles
Clouds Overcast 6000 ft
Dew Point 57 °F
Humidity 69%
Rainfall in
Snow Depth Not available.
UV 1 out of 12
Pollen 8.00 out of 12
Air Quality Not available.
Flu Activity Sporadic
METAR KTAZ 241315Z AUTO 15009G15KT 10SM OVC060 20/12 A3012 RMK AO2

More Conditions Fewer Conditions

Pressure 30.12 in
Visibility 10.0 miles
Clouds Overcast 6000 ft
Dew Point 57 °F
Humidity 69%
Rainfall in
Snow Depth Not available.
UV 1 out of 12
Pollen 8.00 out of 12
Air Quality Not available.
Flu Activity Sporadic
METAR KTAZ 241315Z AUTO 15009G15KT 10SM OVC060 20/12 A3012 RMK AO2

More Conditions Fewer Conditions

10-Day Weather Forecast

Almanac

Astronomy

May. 24, 2015 Rise Set
Actual Time
Civil Twilight
Nautical Twilight
Astronomical Twilight
Moon
Length of Visible Light
Length of Day
Tomorrow will be .
, % of the Moon is Illuminated

Today's Extremes

State Highs State Lows

Community

WunderPhotos

Upload Photos

1,823,736 photos uploaded!

WunderBlogs® & News

Nearby

Air Quality

  Air Quality AQ Index Pollutant
Not available.

Snow Depth

Station Depth Elevation

Earthquake Activity

City Distance Mag. Time & Date
Minimum magnitude displayed is 2.5.

Coastal Water Temperatures

Place Temperature

Stations

Nearby Weather Stations

Station Location Temp. Windchill Dew Point Humidity Wind Precip. Elev Updated Type